Time;durP1;ratioP1;P1;durP2;ratioP2;P2;SDS_P1;SDS_P2;PMS_P1;PMS_P2;Temp;Humidity;BMP_temperature;BMP_pressure;BME280_temperature;BME280_humidity;BME280_pressure;Samples;Min_cycle;Max_cycle;Signal;HPM_P1;HPM_P2
2023/05/04 00:01:22;;;;;;;5.13;2.20;;;11.00;99.90;;;;;;5040202;28;20809;-55
2023/05/04 00:03:50;;;;;;;5.33;2.77;;;11.00;99.90;;;;;;5039620;28;20510;-56
2023/05/04 00:06:17;;;;;;;9.60;3.37;;;10.90;99.90;;;;;;5034236;28;20510;-57
2023/05/04 00:08:44;;;;;;;5.10;2.00;;;10.90;99.90;;;;;;5036349;28;20490;-59
2023/05/04 00:11:11;;;;;;;4.43;2.07;;;10.90;99.90;;;;;;5049082;28;20475;-54
2023/05/04 00:13:39;;;;;;;4.53;2.27;;;10.90;99.90;;;;;;5049186;28;20877;-53
2023/05/04 00:16:06;;;;;;;6.20;2.50;;;10.80;99.90;;;;;;5051741;28;20451;-55
2023/05/04 00:18:33;;;;;;;3.10;2.00;;;10.80;99.90;;;;;;5054961;28;20463;-56
2023/05/04 00:21:01;;;;;;;2.60;2.27;;;10.80;99.90;;;;;;5055642;28;20496;-55
2023/05/04 00:23:28;;;;;;;3.47;2.10;;;10.70;99.90;;;;;;5055564;28;20467;-50
2023/05/04 00:25:55;;;;;;;5.07;2.67;;;10.70;99.90;;;;;;5055432;28;20444;-52
2023/05/04 00:28:22;;;;;;;6.10;2.53;;;10.60;99.90;;;;;;5053789;28;20444;-53
2023/05/04 00:30:49;;;;;;;8.00;2.40;;;10.60;99.90;;;;;;5038203;28;20428;-56
2023/05/04 00:33:15;;;;;;;5.63;2.00;;;10.60;99.90;;;;;;5038158;28;20536;-53
2023/05/04 00:35:42;;;;;;;9.03;2.50;;;10.50;99.90;;;;;;5038030;28;20897;-56
2023/05/04 00:38:12;;;;;;;11.37;2.47;;;10.50;99.90;;;;;;5038741;28;20443;-57
2023/05/04 00:40:39;;;;;;;9.20;2.30;;;10.50;99.90;;;;;;5044062;28;20447;-55
2023/05/04 00:43:06;;;;;;;4.50;2.70;;;10.40;99.90;;;;;;5053669;28;20567;-54
2023/05/04 00:45:34;;;;;;;2.50;1.97;;;10.40;99.90;;;;;;5056327;28;20448;-55
2023/05/04 00:48:01;;;;;;;7.63;2.70;;;10.40;99.90;;;;;;5047960;28;20502;-53
2023/05/04 00:50:29;;;;;;;6.60;2.53;;;10.30;99.90;;;;;;5038374;28;20448;-56
2023/05/04 00:52:58;;;;;;;3.20;2.03;;;10.30;99.90;;;;;;5037776;28;20546;-56
2023/05/04 00:55:27;;;;;;;4.20;2.17;;;10.30;99.90;;;;;;5061910;28;20409;-54
2023/05/04 00:57:55;;;;;;;6.40;2.80;;;10.30;99.90;;;;;;5061838;28;20412;-49
2023/05/04 01:00:23;;;;;;;5.27;2.40;;;10.20;99.90;;;;;;5061257;28;20464;-55
2023/05/04 01:02:54;;;;;;;4.43;2.30;;;10.20;99.90;;;;;;5058154;28;20472;-51
2023/05/04 01:05:21;;;;;;;8.17;2.53;;;10.20;99.90;;;;;;5057421;28;20443;-54
2023/05/04 01:07:56;;;;;;;6.93;3.20;;;10.20;99.90;;;;;;5057551;28;20471;-50
2023/05/04 01:10:29;;;;;;;4.20;2.33;;;10.20;99.90;;;;;;5058013;28;20424;-56
2023/05/04 01:13:00;;;;;;;7.37;2.43;;;10.10;99.90;;;;;;5058326;28;20455;-52
2023/05/04 01:15:27;;;;;;;4.97;2.50;;;10.10;99.90;;;;;;5058054;28;20436;-53
2023/05/04 01:17:54;;;;;;;10.00;3.20;;;10.10;99.90;;;;;;5056546;28;20484;-55
2023/05/04 01:20:21;;;;;;;3.83;3.20;;;10.10;99.90;;;;;;5037630;28;20511;-57
2023/05/04 01:22:53;;;;;;;5.43;2.20;;;10.10;99.90;;;;;;5037226;28;20574;-55
2023/05/04 01:25:20;;;;;;;5.03;2.70;;;10.00;99.90;;;;;;5037078;28;20504;-56
2023/05/04 01:27:52;;;;;;;6.83;2.90;;;10.00;99.90;;;;;;5040273;28;20508;-54
2023/05/04 01:30:23;;;;;;;4.77;2.53;;;10.00;99.90;;;;;;5042893;28;20843;-55
2023/05/04 01:32:51;;;;;;;7.00;2.20;;;9.90;99.90;;;;;;5037449;28;20437;-55
2023/05/04 01:35:18;;;;;;;3.63;2.43;;;9.90;99.90;;;;;;5037302;28;20842;-56
2023/05/04 01:37:45;;;;;;;4.60;2.10;;;9.90;99.90;;;;;;5037273;28;20522;-54
2023/05/04 01:40:13;;;;;;;2.10;1.77;;;9.90;99.90;;;;;;5036648;28;20491;-57
2023/05/04 01:42:40;;;;;;;4.67;2.10;;;9.90;99.90;;;;;;5047650;28;20480;-55
2023/05/04 01:45:08;;;;;;;10.23;2.70;;;9.80;99.90;;;;;;5054920;28;20502;-54
2023/05/04 01:47:35;;;;;;;5.00;2.00;;;9.80;99.90;;;;;;5058522;28;20480;-54
2023/05/04 01:50:05;;;;;;;5.90;2.43;;;9.70;99.90;;;;;;5058098;28;20865;-52
2023/05/04 01:52:32;;;;;;;7.33;2.40;;;9.70;99.90;;;;;;5058678;28;20444;-51
2023/05/04 01:54:59;;;;;;;5.20;2.70;;;9.60;99.90;;;;;;5058813;28;20482;-50
2023/05/04 01:57:27;;;;;;;7.90;2.10;;;9.60;99.90;;;;;;5058313;28;20425;-51
2023/05/04 02:00:18;;;;;;;15.13;2.27;;;9.60;99.90;;;;;;5058570;28;20464;-49
2023/05/04 02:02:45;;;;;;;8.00;1.87;;;9.50;99.90;;;;;;4978647;29;20555;-49
2023/05/04 02:05:12;;;;;;;7.40;2.80;;;9.50;99.90;;;;;;4978420;29;20447;-51
2023/05/04 02:07:39;;;;;;;2.60;1.80;;;9.50;99.90;;;;;;4978682;29;20474;-55
2023/05/04 02:10:07;;;;;;;7.50;2.10;;;9.40;99.90;;;;;;4978528;29;20460;-52
2023/05/04 02:12:35;;;;;;;3.70;1.90;;;9.40;99.90;;;;;;4978614;29;20447;-54
2023/05/04 02:15:02;;;;;;;11.27;2.73;;;9.40;99.90;;;;;;4978134;29;20495;-48
2023/05/04 02:17:29;;;;;;;4.83;2.37;;;9.40;99.90;;;;;;4978247;29;20452;-55
2023/05/04 02:19:56;;;;;;;6.77;2.33;;;9.30;99.90;;;;;;4977458;29;20455;-55
2023/05/04 02:22:28;;;;;;;3.10;1.87;;;9.20;99.90;;;;;;4956389;29;20556;-56
2023/05/04 02:24:55;;;;;;;8.20;2.30;;;9.20;99.90;;;;;;4956436;29;20440;-55
2023/05/04 02:27:22;;;;;;;5.00;1.77;;;9.10;99.90;;;;;;4956828;29;20590;-56
2023/05/04 02:29:50;;;;;;;12.40;2.90;;;9.20;99.90;;;;;;4960038;29;20483;-53
2023/05/04 02:32:17;;;;;;;3.20;1.93;;;9.10;99.90;;;;;;4976628;29;20448;-55
2023/05/04 02:34:44;;;;;;;9.27;2.90;;;9.10;99.90;;;;;;4978028;29;20460;-51
2023/05/04 02:37:11;;;;;;;3.60;1.90;;;9.00;99.90;;;;;;4976867;29;20483;-53
2023/05/04 02:39:38;;;;;;;4.83;2.40;;;9.10;99.90;;;;;;5011516;28;20456;-53
2023/05/04 02:42:07;;;;;;;6.50;1.60;;;9.10;99.90;;;;;;5057220;28;20464;-50
2023/05/04 02:44:37;;;;;;;11.30;2.63;;;9.00;99.90;;;;;;5057383;28;20432;-50
2023/05/04 02:47:05;;;;;;;5.63;2.23;;;9.00;99.90;;;;;;5038976;28;20507;-49
2023/05/04 02:49:32;;;;;;;6.77;3.37;;;9.00;99.90;;;;;;5035603;28;20444;-55
2023/05/04 02:52:02;;;;;;;4.50;1.93;;;9.00;99.90;;;;;;5035668;28;21030;-52
2023/05/04 02:54:29;;;;;;;13.30;2.70;;;9.00;99.90;;;;;;5035549;28;20539;-55
2023/05/04 02:56:56;;;;;;;2.77;1.80;;;9.00;99.90;;;;;;5035543;28;20487;-52
2023/05/04 02:59:32;;;;;;;5.70;2.90;;;9.00;99.90;;;;;;5035515;28;20454;-51
2023/05/04 03:01:59;;;;;;;4.47;2.63;;;9.00;99.90;;;;;;5035344;28;20554;-51
2023/05/04 03:04:31;;;;;;;4.00;2.00;;;9.00;99.90;;;;;;5037720;28;20472;-56
2023/05/04 03:06:58;;;;;;;5.90;2.27;;;8.90;99.90;;;;;;5050022;28;20479;-53
2023/05/04 03:09:28;;;;;;;4.20;2.30;;;8.90;99.90;;;;;;5037577;28;20480;-55
2023/05/04 03:11:55;;;;;;;4.60;2.27;;;8.90;99.90;;;;;;5039148;28;20444;-51
2023/05/04 03:14:22;;;;;;;3.33;1.73;;;8.90;99.90;;;;;;5059230;28;20424;-52
2023/05/04 03:16:51;;;;;;;4.90;2.40;;;8.90;99.90;;;;;;5059247;28;20467;-51
2023/05/04 03:19:19;;;;;;;10.10;2.70;;;8.90;99.90;;;;;;5059334;28;20432;-52
2023/05/04 03:21:48;;;;;;;3.80;2.30;;;8.90;99.90;;;;;;5057170;28;20473;-54
2023/05/04 03:24:18;;;;;;;5.30;2.03;;;8.90;99.90;;;;;;5056323;28;20431;-51
2023/05/04 03:26:46;;;;;;;3.47;2.23;;;8.90;99.90;;;;;;5056430;28;20455;-56
2023/05/04 03:29:12;;;;;;;5.23;2.80;;;8.80;99.90;;;;;;5048849;28;20475;-53
2023/05/04 03:31:39;;;;;;;10.13;2.37;;;8.80;99.90;;;;;;5038367;28;20482;-51
2023/05/04 03:34:11;;;;;;;5.40;2.30;;;8.80;99.90;;;;;;5042566;28;20523;-54
2023/05/04 03:36:38;;;;;;;11.63;2.67;;;8.70;99.90;;;;;;5045789;28;20452;-53
2023/05/04 03:39:07;;;;;;;3.83;1.87;;;8.70;99.90;;;;;;5053468;28;20518;-53
2023/05/04 03:41:34;;;;;;;6.13;2.33;;;8.60;99.90;;;;;;5050340;28;20464;-54
2023/05/04 03:44:01;;;;;;;4.70;2.23;;;8.60;99.90;;;;;;5044791;28;20587;-54
2023/05/04 03:46:27;;;;;;;2.73;2.23;;;8.60;99.90;;;;;;5055842;28;20444;-53
2023/05/04 03:48:54;;;;;;;7.13;2.63;;;8.60;99.90;;;;;;5053058;28;20448;-52
2023/05/04 03:51:25;;;;;;;5.70;2.33;;;8.60;99.90;;;;;;5052889;28;20440;-53
2023/05/04 03:53:54;;;;;;;2.87;2.57;;;8.60;99.90;;;;;;5043182;28;20808;-53
2023/05/04 03:56:23;;;;;;;5.00;3.23;;;8.60;99.90;;;;;;5050046;28;20444;-54
2023/05/04 03:58:53;;;;;;;9.07;2.57;;;8.60;99.90;;;;;;5056992;28;20428;-52
2023/05/04 04:01:20;;;;;;;4.63;2.13;;;8.60;99.90;;;;;;5058035;28;20480;-55
2023/05/04 04:03:47;;;;;;;5.03;3.00;;;8.60;99.90;;;;;;5058154;28;20436;-51
2023/05/04 04:06:14;;;;;;;4.33;3.23;;;8.60;99.90;;;;;;5058214;28;20436;-51
2023/05/04 04:08:41;;;;;;;7.30;3.30;;;8.60;99.90;;;;;;5058459;28;20412;-53
2023/05/04 04:11:10;;;;;;;4.53;2.23;;;8.60;99.90;;;;;;5057674;28;20476;-53
2023/05/04 04:13:38;;;;;;;10.37;2.60;;;8.60;99.90;;;;;;5037827;28;20551;-56
2023/05/04 04:16:05;;;;;;;4.57;2.23;;;8.60;99.90;;;;;;5035414;28;20456;-53
2023/05/04 04:18:32;;;;;;;5.07;2.43;;;8.50;99.90;;;;;;5039980;28;20969;-50
2023/05/04 04:20:59;;;;;;;4.50;2.40;;;8.50;99.90;;;;;;5044081;28;20471;-54
2023/05/04 04:23:26;;;;;;;6.10;2.37;;;8.60;99.90;;;;;;5052621;28;20500;-53
2023/05/04 04:25:53;;;;;;;6.90;2.73;;;8.50;99.90;;;;;;5053886;28;20464;-52
2023/05/04 04:28:21;;;;;;;5.80;2.30;;;8.50;99.90;;;;;;5056340;28;20450;-53
2023/05/04 04:30:49;;;;;;;8.23;2.50;;;8.50;99.90;;;;;;5055707;28;20504;-56
2023/05/04 04:33:16;;;;;;;7.10;2.60;;;8.40;99.90;;;;;;5055672;28;20475;-52
2023/05/04 04:35:44;;;;;;;7.30;2.00;;;8.40;99.90;;;;;;5055626;28;20471;-55
2023/05/04 04:38:11;;;;;;;8.40;2.77;;;8.50;99.90;;;;;;5055553;28;20440;-55
2023/05/04 04:40:37;;;;;;;6.77;3.20;;;8.40;99.90;;;;;;5056145;28;20471;-54
2023/05/04 04:43:04;;;;;;;8.70;2.50;;;8.40;99.90;;;;;;5055748;28;20487;-52
2023/05/04 04:45:32;;;;;;;2.73;2.07;;;8.40;99.90;;;;;;5054567;28;20467;-57
2023/05/04 04:48:04;;;;;;;3.80;2.60;;;8.50;99.90;;;;;;5038929;28;20419;-51
2023/05/04 04:50:31;;;;;;;5.83;3.00;;;9.70;99.90;;;;;;5058203;28;20443;-45
2023/05/04 04:52:58;;;;;;;8.10;2.90;;;8.40;99.90;;;;;;5056065;28;20438;-56
2023/05/04 04:55:25;;;;;;;7.70;3.00;;;8.40;99.90;;;;;;5034178;28;20421;-55
2023/05/04 04:57:53;;;;;;;3.17;2.20;;;8.40;99.90;;;;;;5051066;28;20543;-56
2023/05/04 05:00:22;;;;;;;13.27;2.37;;;8.40;99.90;;;;;;5055246;28;20464;-52
2023/05/04 05:02:49;;;;;;;4.67;2.20;;;8.40;99.90;;;;;;5055301;28;20464;-55
2023/05/04 05:05:18;;;;;;;6.60;2.30;;;8.50;99.90;;;;;;5055740;28;20455;-51
2023/05/04 05:07:47;;;;;;;4.43;2.60;;;8.50;99.90;;;;;;5055239;28;20471;-56
2023/05/04 05:10:15;;;;;;;4.80;2.23;;;8.60;99.90;;;;;;5055276;28;20510;-49
2023/05/04 05:12:42;;;;;;;4.70;1.87;;;8.60;99.90;;;;;;5055146;28;20463;-52
2023/05/04 05:15:10;;;;;;;7.60;2.40;;;8.60;99.90;;;;;;5057841;28;20511;-55
2023/05/04 05:17:38;;;;;;;5.93;2.77;;;8.60;99.90;;;;;;5041034;28;20450;-54
2023/05/04 05:20:08;;;;;;;8.63;3.07;;;8.70;99.90;;;;;;5037288;28;20478;-55
2023/05/04 05:22:37;;;;;;;4.00;2.97;;;8.80;99.90;;;;;;5037688;28;20792;-56
2023/05/04 05:25:04;;;;;;;4.60;2.70;;;8.90;99.90;;;;;;5037616;28;20486;-55
2023/05/04 05:27:33;;;;;;;5.33;2.80;;;8.90;99.90;;;;;;5037401;28;20467;-55
2023/05/04 05:30:00;;;;;;;4.80;3.27;;;9.00;99.90;;;;;;5037978;28;20448;-57
2023/05/04 05:32:26;;;;;;;5.23;2.93;;;9.10;99.90;;;;;;5041566;28;20448;-53
2023/05/04 05:34:53;;;;;;;16.07;3.33;;;9.10;99.90;;;;;;5054415;28;20459;-52
2023/05/04 05:37:20;;;;;;;9.07;3.93;;;9.20;99.90;;;;;;5055144;28;20453;-55
2023/05/04 05:39:48;;;;;;;11.40;2.87;;;9.20;99.90;;;;;;5055064;28;20523;-57
2023/05/04 05:42:15;;;;;;;5.30;2.77;;;9.30;99.90;;;;;;5038291;28;20536;-60
2023/05/04 05:44:42;;;;;;;6.17;2.80;;;9.40;99.90;;;;;;5037149;28;20488;-60
2023/05/04 05:47:11;;;;;;;6.13;3.60;;;9.40;99.90;;;;;;5037190;28;20444;-59
2023/05/04 05:49:38;;;;;;;3.50;3.13;;;9.50;99.90;;;;;;5060362;28;20430;-52
2023/05/04 05:52:05;;;;;;;4.47;3.00;;;9.60;99.90;;;;;;5060818;28;20432;-52
2023/05/04 05:54:33;;;;;;;9.30;4.10;;;9.60;99.90;;;;;;5059507;28;20431;-56
2023/05/04 05:57:09;;;;;;;7.63;3.30;;;9.60;99.90;;;;;;5058126;28;20474;-58
2023/05/04 05:59:36;;;;;;;5.83;3.23;;;9.70;99.90;;;;;;5057341;28;20491;-48
2023/05/04 06:02:05;;;;;;;9.40;3.33;;;9.70;99.90;;;;;;5057421;28;20425;-57
2023/05/04 06:04:33;;;;;;;6.80;3.70;;;9.80;99.90;;;;;;5057380;28;20786;-56
2023/05/04 06:07:00;;;;;;;4.87;2.57;;;9.80;99.90;;;;;;5056857;28;20459;-55
2023/05/04 06:09:26;;;;;;;10.93;3.60;;;9.90;99.90;;;;;;5056923;28;20483;-54
2023/05/04 06:11:53;;;;;;;5.23;2.57;;;10.00;99.90;;;;;;5057533;28;20476;-55
2023/05/04 06:14:22;;;;;;;9.60;3.00;;;10.00;99.90;;;;;;5057356;28;20424;-55
2023/05/04 06:16:48;;;;;;;9.90;3.20;;;10.20;99.90;;;;;;5057551;28;20478;-56
2023/05/04 06:19:15;;;;;;;6.93;2.93;;;10.30;99.90;;;;;;5039271;28;20508;-55
2023/05/04 06:21:42;;;;;;;6.93;3.30;;;10.30;99.90;;;;;;5036910;28;20444;-52
2023/05/04 06:24:09;;;;;;;4.70;3.00;;;10.40;99.90;;;;;;5036163;28;20492;-54
2023/05/04 06:26:36;;;;;;;7.73;3.70;;;10.50;99.90;;;;;;5035375;28;20448;-57
2023/05/04 06:29:03;;;;;;;4.50;3.30;;;10.60;99.90;;;;;;5036601;28;20957;-55
2023/05/04 06:31:31;;;;;;;6.50;2.97;;;10.70;99.90;;;;;;5037030;28;20975;-56
2023/05/04 06:33:58;;;;;;;4.33;2.60;;;10.90;99.90;;;;;;5036770;28;20957;-58
2023/05/04 06:36:25;;;;;;;10.20;3.17;;;11.00;99.90;;;;;;5038875;28;20468;-54
2023/05/04 06:38:54;;;;;;;10.57;3.70;;;11.10;99.90;;;;;;5041902;28;20452;-53
2023/05/04 06:41:21;;;;;;;10.33;3.13;;;11.10;99.90;;;;;;5041502;28;20448;-56
2023/05/04 06:43:48;;;;;;;9.33;4.20;;;11.20;99.90;;;;;;5045230;28;20511;-52
2023/05/04 06:46:15;;;;;;;7.87;3.47;;;11.30;99.90;;;;;;5047170;28;20771;-59
2023/05/04 06:48:44;;;;;;;6.87;3.27;;;11.40;99.90;;;;;;5036468;28;20474;-61
2023/05/04 06:51:11;;;;;;;6.70;3.60;;;11.50;99.90;;;;;;5037070;28;20947;-59
2023/05/04 06:53:37;;;;;;;9.37;3.77;;;11.60;99.90;;;;;;5041082;28;20482;-57
2023/05/04 06:56:06;;;;;;;6.17;3.80;;;11.70;99.90;;;;;;5038650;28;20480;-59
2023/05/04 06:58:33;;;;;;;12.43;4.40;;;11.80;99.90;;;;;;5036270;28;20432;-59
2023/05/04 07:01:00;;;;;;;7.53;3.53;;;11.60;99.90;;;;;;5043933;28;20428;-52
2023/05/04 07:03:28;;;;;;;4.10;3.07;;;11.90;99.90;;;;;;5059171;28;20468;-52
2023/05/04 07:05:56;;;;;;;3.50;2.83;;;12.00;99.90;;;;;;5056590;28;20893;-58
2023/05/04 07:08:23;;;;;;;8.47;3.93;;;12.10;99.90;;;;;;5056548;28;20440;-52
2023/05/04 07:10:50;;;;;;;4.40;3.13;;;12.20;99.90;;;;;;5056210;28;20464;-57
2023/05/04 07:13:17;;;;;;;6.00;3.17;;;12.30;99.90;;;;;;5056964;28;20475;-51
2023/05/04 07:15:44;;;;;;;4.97;3.67;;;12.50;99.90;;;;;;5056818;28;20424;-54
2023/05/04 07:18:11;;;;;;;11.20;3.80;;;12.60;99.90;;;;;;5056604;28;20428;-55
2023/05/04 07:20:38;;;;;;;3.40;2.60;;;12.70;99.90;;;;;;5056653;28;20475;-56
2023/05/04 07:23:09;;;;;;;4.00;2.83;;;12.80;99.90;;;;;;5056161;28;20468;-59
2023/05/04 07:25:36;;;;;;;7.10;2.60;;;13.00;99.90;;;;;;5056063;28;20479;-59
2023/05/04 07:28:06;;;;;;;5.37;3.50;;;13.10;99.90;;;;;;5055614;28;20499;-56
2023/05/04 07:30:33;;;;;;;5.80;2.87;;;13.30;99.90;;;;;;5038239;28;20471;-60
2023/05/04 07:33:00;;;;;;;6.97;4.37;;;13.40;99.90;;;;;;5036147;28;20538;-60
2023/05/04 07:35:27;;;;;;;4.50;3.07;;;13.60;99.90;;;;;;5038126;28;20571;-58
2023/05/04 07:37:56;;;;;;;8.70;3.57;;;13.70;99.90;;;;;;5036439;28;20470;-55
2023/05/04 07:40:25;;;;;;;6.27;3.00;;;14.20;99.90;;;;;;5044130;28;20483;-58
2023/05/04 07:42:52;;;;;;;13.03;3.73;;;14.70;99.90;;;;;;5034588;28;20436;-59
2023/05/04 07:45:19;;;;;;;10.43;3.47;;;16.20;99.90;;;;;;5034464;28;21049;-59
2023/05/04 07:47:46;;;;;;;5.03;2.53;;;17.40;99.90;;;;;;5034751;28;20468;-57
2023/05/04 07:50:13;;;;;;;7.40;3.27;;;17.90;97.40;;;;;;5040751;28;20495;-59
2023/05/04 07:52:40;;;;;;;3.90;2.67;;;20.20;88.40;;;;;;5041010;28;20466;-60
2023/05/04 07:55:08;;;;;;;13.43;8.10;;;22.50;71.00;;;;;;5038772;28;20456;-59
2023/05/04 07:57:38;;;;;;;3.70;3.20;;;24.50;64.20;;;;;;5034318;28;20834;-59
2023/05/04 08:00:07;;;;;;;3.33;2.87;;;26.50;54.10;;;;;;5034474;28;20940;-60
2023/05/04 08:02:34;;;;;;;5.87;3.80;;;27.90;47.80;;;;;;5035475;28;20531;-59
2023/05/04 08:05:01;;;;;;;4.00;2.90;;;29.10;44.80;;;;;;5037609;28;20487;-59
2023/05/04 08:07:28;;;;;;;5.03;3.77;;;30.00;42.50;;;;;;5040226;28;20466;-59
2023/05/04 08:09:55;;;;;;;3.93;3.00;;;30.90;40.50;;;;;;5049484;28;20435;-57
2023/05/04 08:12:22;;;;;;;2.93;2.47;;;31.20;38.60;;;;;;5055940;28;20482;-60
2023/05/04 08:14:51;;;;;;;5.10;3.20;;;31.40;37.50;;;;;;5038872;28;20441;-61
2023/05/04 08:17:18;;;;;;;6.80;3.97;;;31.10;36.10;;;;;;5034861;28;20451;-59
2023/05/04 08:19:47;;;;;;;4.63;2.70;;;31.10;35.40;;;;;;5036724;28;20448;-58
2023/05/04 08:22:14;;;;;;;3.87;2.90;;;31.10;37.70;;;;;;5037713;28;20507;-59
2023/05/04 08:24:41;;;;;;;6.03;3.43;;;31.60;34.60;;;;;;5037940;28;20549;-60
2023/05/04 08:27:08;;;;;;;4.37;2.83;;;31.40;35.20;;;;;;5036457;28;20456;-59
2023/05/04 08:29:36;;;;;;;6.80;3.37;;;;;;;;;;5037978;28;20483;-59
2023/05/04 08:32:04;;;;;;;9.70;3.17;;;30.70;34.80;;;;;;5048386;28;20502;-56
2023/05/04 08:34:31;;;;;;;3.93;2.30;;;30.00;50.80;;;;;;5054975;28;20428;-59
2023/05/04 08:36:58;;;;;;;4.43;2.40;;;29.90;56.90;;;;;;5052686;28;20464;-56
2023/05/04 08:39:25;;;;;;;4.93;2.70;;;30.00;58.10;;;;;;5052767;28;20468;-57
2023/05/04 08:41:52;;;;;;;6.30;2.50;;;29.90;59.30;;;;;;5052959;28;20451;-56
2023/05/04 08:44:19;;;;;;;4.73;2.60;;;;;;;;;;5052704;28;20483;-55
2023/05/04 08:46:52;;;;;;;5.30;2.80;;;29.40;34.70;;;;;;5051607;28;20495;-57
2023/05/04 08:49:21;;;;;;;6.10;2.33;;;29.00;34.00;;;;;;5045572;28;20468;-56
2023/05/04 08:51:49;;;;;;;3.63;3.23;;;29.20;33.50;;;;;;5054297;28;20428;-59
2023/05/04 08:54:17;;;;;;;4.67;2.90;;;29.70;53.90;;;;;;5055111;28;20462;-57
2023/05/04 08:56:45;;;;;;;2.80;2.27;;;28.90;55.00;;;;;;5048220;28;20920;-59
2023/05/04 08:59:20;;;;;;;8.27;3.40;;;29.30;36.50;;;;;;5037777;28;20462;-59
2023/05/04 09:01:50;;;;;;;4.77;2.40;;;28.80;63.20;;;;;;5037821;28;20541;-59
2023/05/04 09:04:18;;;;;;;4.03;2.87;;;28.80;36.60;;;;;;5037415;28;20899;-59
2023/05/04 09:06:47;;;;;;;11.83;3.10;;;;;;;;;;5040935;28;20529;-59
2023/05/04 09:09:14;;;;;;;5.77;2.63;;;28.80;69.50;;;;;;5047931;28;20452;-60
2023/05/04 09:11:42;;;;;;;3.40;3.00;;;;;;;;;;5041626;28;20917;-60
2023/05/04 09:14:09;;;;;;;3.80;2.87;;;;;;;;;;5037569;28;20483;-61
2023/05/04 09:16:36;;;;;;;4.63;3.50;;;;;;;;;;5038599;28;20487;-60
2023/05/04 09:19:04;;;;;;;3.27;2.90;;;;;;;;;;5045001;28;20444;-59
2023/05/04 09:21:32;;;;;;;6.00;3.00;;;;;;;;;;5049260;28;20467;-59
2023/05/04 09:24:00;;;;;;;4.97;3.23;;;29.00;34.40;;;;;;5048933;28;20523;-60
2023/05/04 09:26:28;;;;;;;3.43;2.80;;;;;;;;;;5037410;28;20792;-59
2023/05/04 09:28:55;;;;;;;4.90;3.50;;;;;;;;;;5037380;28;20456;-60
2023/05/04 09:31:23;;;;;;;3.30;2.67;;;;;;;;;;5037021;28;20510;-60
2023/05/04 09:33:50;;;;;;;6.43;3.27;;;;;;;;;;5061103;28;20440;-53
2023/05/04 09:36:19;;;;;;;3.87;2.73;;;;;;;;;;5061029;28;20446;-55
2023/05/04 09:38:47;;;;;;;13.33;5.63;;;;;;;;;;5056027;28;20480;-60
2023/05/04 09:41:16;;;;;;;5.93;3.83;;;;;;;;;;5037178;28;20443;-61
2023/05/04 09:43:43;;;;;;;10.10;3.10;;;27.40;64.70;;;;;;5037016;28;20531;-60
2023/05/04 09:46:17;;;;;;;5.33;2.77;;;27.40;57.00;;;;;;5037007;28;20549;-60
2023/05/04 09:48:52;;;;;;;4.37;2.60;;;;;;;;;;5055736;28;20499;-57
2023/05/04 09:51:23;;;;;;;4.23;2.50;;;27.30;64.00;;;;;;5059584;28;20455;-58
2023/05/04 09:53:51;;;;;;;5.03;2.70;;;;;;;;;;5038456;28;20504;-60
2023/05/04 09:56:24;;;;;;;2.60;2.40;;;;;;;;;;5036869;28;20523;-62
2023/05/04 09:58:51;;;;;;;4.57;3.13;;;;;;;;;;5036912;28;20440;-59
2023/05/04 10:01:19;;;;;;;6.27;3.07;;;;;;;;;;5037107;28;20475;-59
2023/05/04 10:03:46;;;;;;;2.90;2.70;;;;;;;;;;5036359;28;20472;-60
2023/05/04 10:06:14;;;;;;;5.00;2.20;;;;;;;;;;5036763;28;20934;-61
2023/05/04 10:08:41;;;;;;;4.10;3.60;;;;;;;;;;5036625;28;20819;-61
2023/05/04 10:11:08;;;;;;;3.77;2.37;;;;;;;;;;5037427;28;20536;-60
2023/05/04 10:13:36;;;;;;;6.70;2.60;;;;;;;;;;5051346;28;20435;-55
2023/05/04 10:16:12;;;;;;;3.30;3.00;;;;;;;;;;5060158;28;20436;-54
2023/05/04 10:18:48;;;;;;;4.97;2.57;;;;;;;;;;5060235;28;20409;-53
2023/05/04 10:21:30;;;;;;;5.00;2.83;;;;;;;;;;5043973;28;20579;-59
2023/05/04 10:24:16;;;;;;;7.20;2.60;;;;;;;;;;5039110;28;20458;-60
2023/05/04 10:26:52;;;;;;;2.80;2.60;;;;;;;;;;5036094;28;20955;-60
2023/05/04 10:29:23;;;;;;;3.80;3.20;;;26.20;64.70;;;;;;5036475;28;20884;-61
2023/05/04 10:31:51;;;;;;;3.93;2.77;;;;;;;;;;5035992;28;20519;-57
2023/05/04 10:34:25;;;;;;;4.90;2.50;;;;;;;;;;5036172;28;20478;-59
2023/05/04 10:36:53;;;;;;;8.03;2.97;;;;;;;;;;5053927;28;20447;-53
2023/05/04 10:39:22;;;;;;;6.07;3.10;;;;;;;;;;5059755;28;20409;-56
2023/05/04 10:41:59;;;;;;;3.63;2.70;;;;;;;;;;5059862;28;20436;-49
2023/05/04 10:44:27;;;;;;;5.23;2.80;;;;;;;;;;5059679;28;20470;-54
2023/05/04 10:47:02;;;;;;;8.10;2.57;;;;;;;;;;5059692;28;20467;-53
2023/05/04 10:49:29;;;;;;;4.80;2.70;;;;;;;;;;5058238;28;20530;-54
2023/05/04 10:52:06;;;;;;;3.67;2.50;;;;;;;;;;5041528;28;20555;-60
2023/05/04 10:54:34;;;;;;;4.50;2.70;;;;;;;;;;5035500;28;20439;-60
2023/05/04 10:57:03;;;;;;;5.80;3.00;;;;;;;;;;5035742;28;20487;-60
2023/05/04 10:59:32;;;;;;;2.93;2.63;;;;;;;;;;5035705;28;20514;-60
2023/05/04 11:01:59;;;;;;;3.43;2.57;;;;;;;;;;5035770;28;20471;-60
2023/05/04 11:04:26;;;;;;;6.23;2.53;;;;;;;;;;5036294;28;20475;-60
2023/05/04 11:06:57;;;;;;;4.77;2.80;;;22.70;60.90;;;;;;5038300;28;20513;-58
2023/05/04 11:09:26;;;;;;;11.70;3.43;;;;;;;;;;5039500;28;20773;-57
2023/05/04 11:11:54;;;;;;;4.03;2.73;;;;;;;;;;5039378;28;20452;-60
2023/05/04 11:14:24;;;;;;;4.27;3.17;;;22.20;71.30;;;;;;5039744;28;20537;-59
2023/05/04 11:16:53;;;;;;;9.00;2.70;;;;;;;;;;5035712;28;20475;-60
2023/05/04 11:19:21;;;;;;;3.40;2.80;;;;;;;;;;5035393;28;20448;-59
2023/05/04 11:21:48;;;;;;;2.77;2.53;;;;;;;;;;5035321;28;20475;-57
2023/05/04 11:24:15;;;;;;;4.33;2.70;;;;;;;;;;5035199;28;20444;-59
2023/05/04 11:26:46;;;;;;;8.87;3.87;;;21.90;72.80;;;;;;5035846;28;20483;-60
2023/05/04 11:29:14;;;;;;;16.13;4.73;;;;;;;;;;5035024;28;20468;-59
2023/05/04 11:31:43;;;;;;;5.10;2.60;;;;;;;;;;5034852;28;20482;-57
2023/05/04 11:34:19;;;;;;;5.30;3.57;;;;;;;;;;5035043;28;20568;-59
2023/05/04 11:36:48;;;;;;;7.60;3.50;;;;;;;;;;5035521;28;20428;-54
2023/05/04 11:39:15;;;;;;;4.20;3.37;;;;;;;;;;5036591;28;20458;-60
2023/05/04 11:41:43;;;;;;;6.33;3.20;;;;;;;;;;5036004;28;20504;-60
2023/05/04 11:44:10;;;;;;;5.20;3.00;;;;;;;;;;5037718;28;20450;-60
2023/05/04 11:46:37;;;;;;;3.03;2.73;;;;;;;;;;5042750;28;20538;-59
2023/05/04 11:49:08;;;;;;;3.50;2.73;;;;;;;;;;5043902;28;20502;-62
2023/05/04 11:51:37;;;;;;;5.03;2.93;;;;;;;;;;5041189;28;20432;-61
2023/05/04 11:54:06;;;;;;;7.50;3.00;;;;;;;;;;5034418;28;20974;-60
2023/05/04 11:56:41;;;;;;;3.67;2.20;;;;;;;;;;5035114;28;20771;-62
2023/05/04 11:59:09;;;;;;;6.07;3.13;;;;;;;;;;5034708;28;20442;-58
2023/05/04 12:01:37;;;;;;;5.17;2.87;;;;;;;;;;5034438;28;20889;-61
2023/05/04 12:04:04;;;;;;;3.10;2.63;;;;;;;;;;5034716;28;20539;-62
2023/05/04 12:06:32;;;;;;;4.37;3.97;;;22.50;66.20;;;;;;5034285;28;20582;-59
2023/05/04 12:09:05;;;;;;;5.97;3.10;;;21.80;64.30;;;;;;5034726;28;20444;-59
2023/05/04 12:11:33;;;;;;;4.07;3.47;;;;;;;;;;5035471;28;20475;-59
2023/05/04 12:14:04;;;;;;;7.57;2.93;;;;;;;;;;5041922;28;20506;-56
2023/05/04 12:16:31;;;;;;;5.70;3.20;;;;;;;;;;5048198;28;20478;-59
2023/05/04 12:19:05;;;;;;;7.80;2.60;;;21.40;66.70;;;;;;5052331;28;20495;-59
2023/05/04 12:21:32;;;;;;;3.93;2.37;;;;;;;;;;5052397;28;20793;-59
2023/05/04 12:24:00;;;;;;;1.77;1.67;;;;;;;;;;5052192;28;20555;-59
2023/05/04 12:26:28;;;;;;;2.97;2.60;;;21.50;64.90;;;;;;5056242;28;20464;-60
2023/05/04 12:28:56;;;;;;;4.00;2.53;;;;;;;;;;5055399;28;20466;-59
2023/05/04 12:31:23;;;;;;;8.43;2.90;;;;;;;;;;5038477;28;20471;-60
2023/05/04 12:33:51;;;;;;;3.90;2.70;;;;;;;;;;5039650;28;20547;-59
2023/05/04 12:36:18;;;;;;;2.80;1.70;;;;;;;;;;5042563;28;20468;-60
2023/05/04 12:38:46;;;;;;;4.37;2.43;;;;;;;;;;5042012;28;20428;-58
2023/05/04 12:41:13;;;;;;;5.73;2.27;;;;;;;;;;5046452;28;20444;-59
2023/05/04 12:43:41;;;;;;;5.67;3.60;;;;;;;;;;5048211;28;20471;-60
2023/05/04 12:46:09;;;;;;;3.47;2.43;;;;;;;;;;5038775;28;20495;-56
2023/05/04 12:48:36;;;;;;;2.73;2.53;;;;;;;;;;5038235;28;20574;-59
2023/05/04 12:51:03;;;;;;;3.77;2.47;;;;;;;;;;5039639;28;20487;-59
2023/05/04 12:53:31;;;;;;;4.43;2.97;;;;;;;;;;5042883;28;20444;-61
2023/05/04 12:56:02;;;;;;;2.70;2.40;;;;;;;;;;5042007;28;20559;-59
2023/05/04 12:58:30;;;;;;;5.60;2.47;;;;;;;;;;5041438;28;20432;-59
2023/05/04 13:00:58;;;;;;;7.13;3.30;;;;;;;;;;5037919;28;20542;-59
2023/05/04 13:03:25;;;;;;;6.90;3.50;;;;;;;;;;5037968;28;20439;-58
2023/05/04 13:05:53;;;;;;;5.60;3.40;;;;;;;;;;5037629;28;20574;-61
2023/05/04 13:08:20;;;;;;;7.50;3.20;;;;;;;;;;5037772;28;20555;-60
2023/05/04 13:10:47;;;;;;;9.43;2.43;;;;;;;;;;5037447;28;20513;-60
2023/05/04 13:13:16;;;;;;;5.97;3.07;;;;;;;;;;5037644;28;20498;-61
2023/05/04 13:15:44;;;;;;;5.47;3.30;;;;;;;;;;5039216;28;20444;-59
2023/05/04 13:18:12;;;;;;;2.43;2.20;;;;;;;;;;5039810;28;20459;-60
2023/05/04 13:20:39;;;;;;;3.10;2.77;;;;;;;;;;5037678;28;20494;-60
2023/05/04 13:23:07;;;;;;;6.57;2.27;;;;;;;;;;5037672;28;20462;-60
2023/05/04 13:25:34;;;;;;;4.73;2.93;;;;;;;;;;5037382;28;20586;-61